createdAt,value
2023-04-20T00:00:48.272Z,91.70
2023-04-20T00:03:15.114Z,91.90
2023-04-20T00:05:41.963Z,92.10
2023-04-20T00:08:08.636Z,92.00
2023-04-20T00:10:35.310Z,92.10
2023-04-20T00:13:01.882Z,92.30
2023-04-20T00:15:30.095Z,92.40
2023-04-20T00:17:57.284Z,92.40
2023-04-20T00:20:24.583Z,92.30
2023-04-20T00:22:51.319Z,92.30
2023-04-20T00:25:18.016Z,92.60
2023-04-20T00:27:44.881Z,92.60
2023-04-20T00:30:12.263Z,92.80
2023-04-20T00:32:38.993Z,93.00
2023-04-20T00:35:06.174Z,93.30
2023-04-20T00:37:32.757Z,93.30
2023-04-20T00:39:59.419Z,93.60
2023-04-20T00:42:26.095Z,93.30
2023-04-20T00:44:52.885Z,93.50
2023-04-20T00:47:19.468Z,93.60
2023-04-20T00:49:46.388Z,94.10
2023-04-20T00:52:13.224Z,94.40
2023-04-20T00:54:40.336Z,93.80
2023-04-20T00:57:07.001Z,94.30
2023-04-20T00:59:33.634Z,94.20
2023-04-20T01:02:00.545Z,93.80
2023-04-20T01:04:27.510Z,93.80
2023-04-20T01:06:54.138Z,93.80
2023-04-20T01:09:21.334Z,93.90
2023-04-20T01:11:48.267Z,93.90
2023-04-20T01:14:14.918Z,94.00
2023-04-20T01:16:41.537Z,94.30
2023-04-20T01:19:08.238Z,94.30
2023-04-20T01:21:34.869Z,94.10
2023-04-20T01:24:01.565Z,94.30
2023-04-20T01:26:28.337Z,94.10
2023-04-20T01:28:55.034Z,94.20
2023-04-20T01:31:21.951Z,94.00
2023-04-20T01:33:49.041Z,94.30
2023-04-20T01:36:16.218Z,94.40
2023-04-20T01:38:42.931Z,94.50
2023-04-20T01:41:09.997Z,94.30
2023-04-20T01:43:38.384Z,94.20
2023-04-20T01:46:05.837Z,94.00
2023-04-20T01:48:32.984Z,93.80
2023-04-20T01:50:59.744Z,94.10
2023-04-20T01:53:26.940Z,94.00
2023-04-20T01:55:53.618Z,94.20
2023-04-20T01:58:20.320Z,94.30
2023-04-20T02:00:47.154Z,94.40
2023-04-20T02:03:13.996Z,94.70
2023-04-20T02:05:40.750Z,95.40
2023-04-20T02:08:07.448Z,95.60
2023-04-20T02:10:34.259Z,95.90
2023-04-20T02:13:00.887Z,96.40
2023-04-20T02:15:27.739Z,97.00
2023-04-20T02:17:54.504Z,97.40
2023-04-20T02:20:21.320Z,97.80
2023-04-20T02:22:47.991Z,98.50
2023-04-20T02:25:15.242Z,99.50
2023-04-20T02:27:42.169Z,99.90
2023-04-20T02:30:10.045Z,99.90
2023-04-20T02:32:36.779Z,99.90
2023-04-20T02:35:04.318Z,99.90
2023-04-20T02:37:31.249Z,99.90
2023-04-20T02:39:58.123Z,99.90
2023-04-20T02:42:24.884Z,99.90
2023-04-20T02:44:52.781Z,99.90
2023-04-20T02:47:19.577Z,99.90
2023-04-20T02:49:47.362Z,99.90
2023-04-20T02:52:14.175Z,99.90
2023-04-20T02:54:40.926Z,99.90
2023-04-20T02:57:07.653Z,99.90
2023-04-20T02:59:34.405Z,99.90
2023-04-20T03:02:01.090Z,99.90
2023-04-20T03:04:28.139Z,99.90
2023-04-20T03:06:54.927Z,99.90
2023-04-20T03:09:22.111Z,99.90
2023-04-20T03:11:49.457Z,99.90
2023-04-20T03:14:16.385Z,99.90
2023-04-20T03:16:43.456Z,99.90
2023-04-20T03:19:10.229Z,99.90
2023-04-20T03:21:37.035Z,99.90
2023-04-20T03:24:04.055Z,99.90
2023-04-20T03:26:30.666Z,99.90
2023-04-20T03:28:57.340Z,99.90
2023-04-20T03:31:24.116Z,99.90
2023-04-20T03:33:50.804Z,99.90
2023-04-20T03:36:17.453Z,99.90
2023-04-20T03:38:44.083Z,99.90
2023-04-20T03:41:10.804Z,99.90
2023-04-20T03:43:37.428Z,99.90
2023-04-20T03:46:04.246Z,99.90
2023-04-20T03:48:30.926Z,99.90
2023-04-20T03:50:58.800Z,99.90
2023-04-20T03:53:26.275Z,99.90
2023-04-20T03:55:52.920Z,99.90
2023-04-20T03:58:19.547Z,99.90
2023-04-20T04:00:46.304Z,99.90
2023-04-20T04:03:13.370Z,99.90
2023-04-20T04:05:41.246Z,99.90
2023-04-20T04:08:07.933Z,99.90
2023-04-20T04:10:34.587Z,99.90
2023-04-20T04:13:01.206Z,99.90
2023-04-20T04:15:27.852Z,99.90
2023-04-20T04:17:55.380Z,99.90
2023-04-20T04:20:22.073Z,99.90
2023-04-20T04:22:48.669Z,99.90
2023-04-20T04:25:15.354Z,99.90
2023-04-20T04:27:42.069Z,99.90
2023-04-20T04:30:09.636Z,99.90
2023-04-20T04:32:36.324Z,99.90
2023-04-20T04:35:03.562Z,99.90
2023-04-20T04:37:30.303Z,99.90
2023-04-20T04:39:58.265Z,99.90
2023-04-20T04:42:25.077Z,99.90
2023-04-20T04:44:53.574Z,99.90
2023-04-20T04:47:22.028Z,99.90
2023-04-20T04:49:49.518Z,99.90
2023-04-20T04:52:16.149Z,99.90
2023-04-20T04:54:42.791Z,99.90
2023-04-20T04:57:09.460Z,99.90
2023-04-20T04:59:36.197Z,99.90
2023-04-20T05:02:02.899Z,99.90
2023-04-20T05:04:29.740Z,99.90
2023-04-20T05:06:56.449Z,99.90
2023-04-20T05:09:23.111Z,99.90
2023-04-20T05:11:49.737Z,99.90
2023-04-20T05:14:16.401Z,99.90
2023-04-20T05:16:43.072Z,99.90
2023-04-20T05:19:09.741Z,99.90
2023-04-20T05:21:38.107Z,99.90
2023-04-20T05:24:05.200Z,99.90
2023-04-20T05:26:31.754Z,99.90
2023-04-20T05:28:58.466Z,99.90
2023-04-20T05:31:26.248Z,99.90
2023-04-20T05:33:53.237Z,99.90
2023-04-20T05:36:20.659Z,99.90
2023-04-20T05:38:47.340Z,99.90
2023-04-20T05:41:14.133Z,99.90
2023-04-20T05:43:40.991Z,99.90
2023-04-20T05:46:07.698Z,99.90
2023-04-20T05:48:34.325Z,99.90
2023-04-20T05:51:01.185Z,99.90
2023-04-20T05:53:27.788Z,99.90
2023-04-20T05:55:54.457Z,99.90
2023-04-20T05:58:21.226Z,99.90
2023-04-20T06:00:47.953Z,99.90
2023-04-20T06:03:14.751Z,99.90
2023-04-20T06:05:41.681Z,99.90
2023-04-20T06:08:08.509Z,99.90
2023-04-20T06:10:35.338Z,99.90
2023-04-20T06:13:01.997Z,99.90
2023-04-20T06:15:28.787Z,99.90
2023-04-20T06:17:55.601Z,99.90
2023-04-20T06:20:23.032Z,99.90
2023-04-20T06:22:49.908Z,99.90
2023-04-20T06:25:16.608Z,99.90
2023-04-20T06:27:43.421Z,99.90
2023-04-20T06:30:10.690Z,99.90
2023-04-20T06:32:38.050Z,99.90
2023-04-20T06:35:06.368Z,99.90
2023-04-20T06:37:33.085Z,99.90
2023-04-20T06:39:59.797Z,99.90
2023-04-20T06:42:27.127Z,99.90
2023-04-20T06:44:53.759Z,99.90
2023-04-20T06:47:20.741Z,99.90
2023-04-20T06:49:47.478Z,99.90
2023-04-20T06:52:14.063Z,99.90
2023-04-20T06:54:40.803Z,99.90
2023-04-20T06:57:07.456Z,99.90
2023-04-20T06:59:34.111Z,99.90
2023-04-20T07:02:01.275Z,99.90
2023-04-20T07:04:28.202Z,99.90
2023-04-20T07:06:54.901Z,99.90
2023-04-20T07:09:22.950Z,99.90
2023-04-20T07:11:49.710Z,99.90
2023-04-20T07:14:16.434Z,99.90
2023-04-20T07:16:43.178Z,99.90
2023-04-20T07:19:09.844Z,99.90
2023-04-20T07:21:36.673Z,99.90
2023-04-20T07:24:03.565Z,99.90
2023-04-20T07:26:30.247Z,99.90
2023-04-20T07:28:57.017Z,99.90
2023-04-20T07:31:23.650Z,99.90
2023-04-20T07:33:50.368Z,99.90
2023-04-20T07:36:16.997Z,99.90
2023-04-20T07:38:43.755Z,99.90
2023-04-20T07:41:11.155Z,99.90
2023-04-20T07:43:39.184Z,99.90
2023-04-20T07:46:06.046Z,99.90
2023-04-20T07:48:34.247Z,99.90
2023-04-20T07:51:01.234Z,99.90
2023-04-20T07:53:29.710Z,99.90
2023-04-20T07:55:56.340Z,99.90
2023-04-20T07:58:22.984Z,99.90
2023-04-20T08:00:49.673Z,99.90
2023-04-20T08:03:16.467Z,99.90
2023-04-20T08:05:43.315Z,99.90
2023-04-20T08:08:09.998Z,99.90
2023-04-20T08:10:37.143Z,99.90
2023-04-20T08:13:03.978Z,99.90
2023-04-20T08:15:31.674Z,99.90
2023-04-20T08:17:58.661Z,99.90
2023-04-20T08:20:25.433Z,99.90
2023-04-20T08:22:53.302Z,99.90
2023-04-20T08:25:20.194Z,99.90
2023-04-20T08:27:46.954Z,99.90
2023-04-20T08:30:13.747Z,99.90
2023-04-20T08:32:40.982Z,99.90
2023-04-20T08:35:09.326Z,99.90
2023-04-20T08:37:37.462Z,99.90
2023-04-20T08:40:05.732Z,99.90
2023-04-20T08:42:32.525Z,99.90
2023-04-20T08:44:59.578Z,99.90
2023-04-20T08:47:27.832Z,99.90
2023-04-20T08:49:57.710Z,99.90
2023-04-20T08:52:24.326Z,99.90
2023-04-20T08:54:56.803Z,99.90
2023-04-20T08:57:26.006Z,99.90
2023-04-20T08:59:52.882Z,99.90
2023-04-20T09:02:19.675Z,99.90
2023-04-20T09:04:49.144Z,99.90
2023-04-20T09:07:21.005Z,99.90
2023-04-20T09:09:55.304Z,99.90
2023-04-20T09:12:22.856Z,99.90
2023-04-20T09:14:49.737Z,99.90
2023-04-20T09:17:18.111Z,99.90
2023-04-20T09:19:46.085Z,99.90
2023-04-20T09:22:13.045Z,99.90
2023-04-20T09:24:42.250Z,99.90
2023-04-20T09:27:16.961Z,99.90
2023-04-20T09:29:44.332Z,99.90
2023-04-20T09:32:23.648Z,99.90
2023-04-20T09:34:50.349Z,99.90
2023-04-20T09:37:17.755Z,99.90
2023-04-20T09:39:45.603Z,99.90
2023-04-20T09:42:13.870Z,99.90
2023-04-20T09:44:40.523Z,99.90
2023-04-20T09:47:09.754Z,99.90
2023-04-20T09:49:36.454Z,99.90
2023-04-20T09:52:05.096Z,99.90
2023-04-20T09:54:31.779Z,99.90
2023-04-20T09:57:02.001Z,99.90
2023-04-20T09:59:29.762Z,99.90
2023-04-20T10:01:56.620Z,99.90
2023-04-20T10:04:23.689Z,99.90
2023-04-20T10:06:55.535Z,99.90
2023-04-20T10:09:24.608Z,99.90
2023-04-20T10:11:54.589Z,99.90
2023-04-20T10:14:26.312Z,99.90
2023-04-20T10:17:01.560Z,99.90
2023-04-20T10:19:42.113Z,99.90
2023-04-20T10:22:10.764Z,99.90
2023-04-20T10:24:40.497Z,99.90
2023-04-20T10:27:20.355Z,99.90
2023-04-20T10:29:47.302Z,99.90
2023-04-20T10:32:28.650Z,99.90
2023-04-20T10:35:06.783Z,99.90
2023-04-20T10:37:34.452Z,99.90
2023-04-20T10:40:01.955Z,99.90
2023-04-20T10:42:29.574Z,99.90
2023-04-20T10:44:56.485Z,99.90
2023-04-20T10:47:34.607Z,99.90
2023-04-20T10:50:07.936Z,99.90
2023-04-20T10:52:39.775Z,99.90
2023-04-20T10:55:17.369Z,99.80
2023-04-20T10:57:46.809Z,99.90
2023-04-20T11:00:16.588Z,99.90
2023-04-20T11:02:50.547Z,99.90
2023-04-20T11:05:18.899Z,99.90
2023-04-20T11:07:53.579Z,99.90
2023-04-20T11:10:22.095Z,99.90
2023-04-20T11:12:48.913Z,99.90
2023-04-20T11:15:16.394Z,99.90
2023-04-20T11:17:43.092Z,99.90
2023-04-20T11:20:12.120Z,99.70
2023-04-20T11:22:40.397Z,99.90
2023-04-20T11:25:09.243Z,98.20
2023-04-20T11:27:37.190Z,96.90
2023-04-20T11:30:05.733Z,97.10
2023-04-20T11:32:33.702Z,99.70
2023-04-20T11:35:10.676Z,99.90
2023-04-20T11:37:47.903Z,99.90
2023-04-20T11:40:15.307Z,99.90
2023-04-20T11:42:42.008Z,99.90
2023-04-20T11:45:09.182Z,99.90
2023-04-20T11:47:35.832Z,99.90
2023-04-20T11:50:02.803Z,99.90
2023-04-20T11:52:29.428Z,99.90
2023-04-20T11:54:56.367Z,99.90
2023-04-20T11:57:23.975Z,99.90
2023-04-20T11:59:50.671Z,99.90
2023-04-20T12:02:17.517Z,99.90
2023-04-20T12:04:44.416Z,99.90
2023-04-20T12:07:11.215Z,99.90
2023-04-20T12:09:38.501Z,99.90
2023-04-20T12:12:07.013Z,99.90
2023-04-20T12:14:33.735Z,99.90
2023-04-20T12:17:04.723Z,99.90
2023-04-20T12:19:32.153Z,99.90
2023-04-20T12:21:58.765Z,99.90
2023-04-20T12:24:25.413Z,99.90
2023-04-20T12:26:52.117Z,99.90
2023-04-20T12:29:19.015Z,99.90
2023-04-20T12:31:46.053Z,99.90
2023-04-20T12:34:12.761Z,99.90
2023-04-20T12:36:39.446Z,99.90
2023-04-20T12:39:06.211Z,99.90
2023-04-20T12:41:33.416Z,99.90
2023-04-20T12:44:01.202Z,99.90
2023-04-20T12:46:29.422Z,99.90
2023-04-20T12:48:56.265Z,99.90
2023-04-20T12:51:22.911Z,99.90
2023-04-20T12:53:49.614Z,99.90
2023-04-20T12:56:16.264Z,99.90
2023-04-20T12:58:44.205Z,99.90
2023-04-20T13:01:11.103Z,99.90
2023-04-20T13:03:37.989Z,99.90
2023-04-20T13:06:05.998Z,99.90
2023-04-20T13:08:32.634Z,99.90
2023-04-20T13:10:59.241Z,99.90
2023-04-20T13:13:26.177Z,99.90
2023-04-20T13:15:56.158Z,99.90
2023-04-20T13:18:24.382Z,99.90
2023-04-20T13:20:51.139Z,99.90
2023-04-20T13:23:18.102Z,99.90
2023-04-20T13:25:44.799Z,99.90
2023-04-20T13:28:14.478Z,99.90
2023-04-20T13:30:41.575Z,99.90
2023-04-20T13:33:08.207Z,99.90
2023-04-20T13:35:35.284Z,99.90
2023-04-20T13:38:02.846Z,99.90
2023-04-20T13:40:29.583Z,99.90
2023-04-20T13:42:57.488Z,99.90
2023-04-20T13:45:25.004Z,99.90
2023-04-20T13:47:51.781Z,99.90
2023-04-20T13:50:18.426Z,99.90
2023-04-20T13:52:45.144Z,99.90
2023-04-20T13:55:11.970Z,99.90
2023-04-20T13:57:38.618Z,99.90
2023-04-20T14:00:06.146Z,99.90
2023-04-20T14:02:33.168Z,99.90
2023-04-20T14:05:00.093Z,99.90
2023-04-20T14:07:26.905Z,99.90
2023-04-20T14:09:56.277Z,99.90
2023-04-20T14:12:23.259Z,99.90
2023-04-20T14:14:50.010Z,99.90
2023-04-20T14:17:16.693Z,99.90
2023-04-20T14:19:43.380Z,99.90
2023-04-20T14:22:10.022Z,99.90
2023-04-20T14:24:36.794Z,99.90
2023-04-20T14:27:03.445Z,99.90
2023-04-20T14:29:30.299Z,99.90
2023-04-20T14:31:57.015Z,99.90
2023-04-20T14:34:23.847Z,99.90
2023-04-20T14:36:50.671Z,99.90
2023-04-20T14:39:19.832Z,99.90
2023-04-20T14:41:46.628Z,99.90
2023-04-20T14:44:13.354Z,99.90
2023-04-20T14:46:42.406Z,99.90
2023-04-20T14:49:10.154Z,99.90
2023-04-20T14:51:36.778Z,99.90
2023-04-20T14:54:03.713Z,99.90
2023-04-20T14:56:30.455Z,99.90
2023-04-20T14:58:59.421Z,99.90
2023-04-20T15:01:27.953Z,99.90
2023-04-20T15:03:54.926Z,99.90
2023-04-20T15:06:21.813Z,99.90
2023-04-20T15:08:48.417Z,99.90
2023-04-20T15:11:15.042Z,99.90
2023-04-20T15:13:42.442Z,99.90
2023-04-20T15:16:09.430Z,99.90
2023-04-20T15:18:36.024Z,99.90
2023-04-20T15:21:02.759Z,99.90
2023-04-20T15:23:29.414Z,99.90
2023-04-20T15:25:56.120Z,99.90
2023-04-20T15:28:22.704Z,99.90
2023-04-20T15:30:49.396Z,99.90
2023-04-20T15:33:16.088Z,99.90
2023-04-20T15:35:42.821Z,99.90
2023-04-20T15:38:09.496Z,99.90
2023-04-20T15:40:36.270Z,99.90
2023-04-20T15:43:03.501Z,99.90
2023-04-20T15:45:31.127Z,99.90
2023-04-20T15:47:58.745Z,99.90
2023-04-20T15:50:25.426Z,99.90
2023-04-20T15:52:54.510Z,99.90
2023-04-20T15:55:21.246Z,99.90
2023-04-20T15:57:47.954Z,99.90
2023-04-20T16:00:15.082Z,99.90
2023-04-20T16:02:41.883Z,99.90
2023-04-20T16:05:09.381Z,99.90
2023-04-20T16:07:36.160Z,99.90
2023-04-20T16:10:03.074Z,99.90
2023-04-20T16:12:29.810Z,99.90
2023-04-20T16:14:57.340Z,99.90
2023-04-20T16:17:24.219Z,99.90
2023-04-20T16:19:51.074Z,99.90
2023-04-20T16:22:17.841Z,99.90
2023-04-20T16:24:44.582Z,99.90
2023-04-20T16:27:11.206Z,99.90
2023-04-20T16:29:37.948Z,99.90
2023-04-20T16:32:04.771Z,99.90
2023-04-20T16:34:31.569Z,99.90
2023-04-20T16:36:58.558Z,99.90
2023-04-20T16:39:25.298Z,99.90
2023-04-20T16:41:51.966Z,99.90
2023-04-20T16:44:18.900Z,99.90
2023-04-20T16:46:51.474Z,99.90
2023-04-20T16:49:18.524Z,99.90
2023-04-20T16:51:45.320Z,99.90
2023-04-20T16:54:12.990Z,99.90
2023-04-20T16:56:40.739Z,99.90
2023-04-20T16:59:07.980Z,99.90
2023-04-20T17:01:35.073Z,99.90
2023-04-20T17:04:02.159Z,99.90
2023-04-20T17:06:29.365Z,99.90
2023-04-20T17:09:01.158Z,99.90
2023-04-20T17:11:27.796Z,99.90
2023-04-20T17:13:54.447Z,99.90
2023-04-20T17:16:21.110Z,99.90
2023-04-20T17:18:47.796Z,99.90
2023-04-20T17:21:14.410Z,99.90
2023-04-20T17:23:41.174Z,99.90
2023-04-20T17:26:08.151Z,99.90
2023-04-20T17:28:34.870Z,99.90
2023-04-20T17:31:01.634Z,99.90
2023-04-20T17:33:28.767Z,99.90
2023-04-20T17:35:56.974Z,99.90
2023-04-20T17:38:24.107Z,99.90
2023-04-20T17:40:51.032Z,99.90
2023-04-20T17:43:17.681Z,99.90
2023-04-20T17:45:44.607Z,99.90
2023-04-20T17:48:11.269Z,99.90
2023-04-20T17:50:37.873Z,99.90
2023-04-20T17:53:06.902Z,99.90
2023-04-20T17:55:34.560Z,99.90
2023-04-20T17:58:02.023Z,99.90
2023-04-20T18:00:28.648Z,99.90
2023-04-20T18:02:55.364Z,99.90
2023-04-20T18:05:22.333Z,99.90
2023-04-20T18:07:49.072Z,99.90
2023-04-20T18:10:16.123Z,99.90
2023-04-20T18:12:43.481Z,99.90
2023-04-20T18:15:10.746Z,99.90
2023-04-20T18:17:38.333Z,99.90
2023-04-20T18:20:06.541Z,99.90
2023-04-20T18:22:33.213Z,99.90
2023-04-20T18:25:00.046Z,99.90
2023-04-20T18:27:26.739Z,99.90
2023-04-20T18:29:53.633Z,99.90
2023-04-20T18:32:20.868Z,99.90
2023-04-20T18:34:47.637Z,99.90
2023-04-20T18:37:14.847Z,99.90
2023-04-20T18:39:41.653Z,99.90
2023-04-20T18:42:08.279Z,99.90
2023-04-20T18:44:35.020Z,99.90
2023-04-20T18:47:02.071Z,99.90
2023-04-20T18:49:30.224Z,99.90
2023-04-20T18:51:57.243Z,99.90
2023-04-20T18:54:23.940Z,99.90
2023-04-20T18:56:50.982Z,99.90
2023-04-20T18:59:18.567Z,99.90
2023-04-20T19:01:45.317Z,99.90
2023-04-20T19:04:12.301Z,99.90
2023-04-20T19:06:39.178Z,99.90
2023-04-20T19:09:07.976Z,99.90
2023-04-20T19:11:35.133Z,99.90
2023-04-20T19:14:01.946Z,99.90
2023-04-20T19:16:33.037Z,99.90
2023-04-20T19:19:00.668Z,99.90
2023-04-20T19:21:27.347Z,99.90
2023-04-20T19:23:54.115Z,99.90
2023-04-20T19:26:21.276Z,99.90
2023-04-20T19:28:48.026Z,99.90
2023-04-20T19:31:16.054Z,99.90
2023-04-20T19:33:43.152Z,99.90
2023-04-20T19:36:10.071Z,99.90
2023-04-20T19:38:38.429Z,99.90
2023-04-20T19:41:06.345Z,99.90
2023-04-20T19:43:33.192Z,99.90
2023-04-20T19:46:00.153Z,99.90
2023-04-20T19:48:26.928Z,99.90
2023-04-20T19:50:56.525Z,99.90
2023-04-20T19:53:25.314Z,99.90
2023-04-20T19:55:52.031Z,99.90
2023-04-20T19:58:19.581Z,99.90
2023-04-20T20:00:46.505Z,99.90
2023-04-20T20:03:15.781Z,99.90
2023-04-20T20:05:43.723Z,99.90
2023-04-20T20:08:10.941Z,99.90
2023-04-20T20:10:37.658Z,99.90
2023-04-20T20:13:04.402Z,99.90
2023-04-20T20:15:32.189Z,99.90
2023-04-20T20:17:59.524Z,99.90
2023-04-20T20:20:32.293Z,99.90
2023-04-20T20:23:00.407Z,99.90
2023-04-20T20:25:27.299Z,99.90
2023-04-20T20:27:54.054Z,99.90
2023-04-20T20:30:20.887Z,99.90
2023-04-20T20:32:47.979Z,99.90
2023-04-20T20:35:14.718Z,99.90
2023-04-20T20:37:41.671Z,99.90
2023-04-20T20:40:12.178Z,99.90
2023-04-20T20:42:40.092Z,99.90
2023-04-20T20:45:10.880Z,99.90
2023-04-20T20:47:38.036Z,99.90
2023-04-20T20:50:05.155Z,99.90
2023-04-20T20:52:31.875Z,99.90
2023-04-20T20:54:58.536Z,99.90
2023-04-20T20:57:25.288Z,99.90
2023-04-20T20:59:53.546Z,99.90
2023-04-20T21:02:20.478Z,99.90
2023-04-20T21:04:47.342Z,99.90
2023-04-20T21:07:14.222Z,99.90
2023-04-20T21:09:40.898Z,99.90
2023-04-20T21:12:07.708Z,99.90
2023-04-20T21:14:34.524Z,99.90
2023-04-20T21:17:01.255Z,99.90
2023-04-20T21:19:28.359Z,99.90
2023-04-20T21:21:55.458Z,99.90
2023-04-20T21:24:22.791Z,99.90
2023-04-20T21:26:49.406Z,99.90
2023-04-20T21:29:16.583Z,99.90
2023-04-20T21:31:43.297Z,99.90
2023-04-20T21:34:10.289Z,99.90
2023-04-20T21:36:36.882Z,99.90
2023-04-20T21:39:03.919Z,99.90
2023-04-20T21:41:32.066Z,99.90
2023-04-20T21:43:58.775Z,99.90
2023-04-20T21:46:25.537Z,99.90
2023-04-20T21:48:52.256Z,99.90
2023-04-20T21:51:19.060Z,99.90
2023-04-20T21:53:45.986Z,99.90
2023-04-20T21:56:14.695Z,99.90
2023-04-20T21:58:41.642Z,99.90
2023-04-20T22:01:08.638Z,99.90
2023-04-20T22:03:36.737Z,99.90
2023-04-20T22:06:05.683Z,99.90
2023-04-20T22:08:32.649Z,99.90
2023-04-20T22:10:59.373Z,99.90
2023-04-20T22:13:26.158Z,99.90
2023-04-20T22:15:53.193Z,99.90
2023-04-20T22:18:19.882Z,99.90
2023-04-20T22:20:46.647Z,99.90
2023-04-20T22:23:13.401Z,99.90
2023-04-20T22:25:40.825Z,99.90
2023-04-20T22:28:07.589Z,99.90
2023-04-20T22:30:34.444Z,99.90
2023-04-20T22:33:01.429Z,99.90
2023-04-20T22:35:29.135Z,99.90
2023-04-20T22:37:56.294Z,99.90
2023-04-20T22:40:23.653Z,99.90
2023-04-20T22:42:50.908Z,99.90
2023-04-20T22:45:19.675Z,99.90
2023-04-20T22:47:47.162Z,99.90
2023-04-20T22:50:14.157Z,99.90
2023-04-20T22:52:41.679Z,99.90
2023-04-20T22:55:10.223Z,99.90
2023-04-20T22:57:37.230Z,99.90
2023-04-20T23:00:10.523Z,99.90
2023-04-20T23:02:37.990Z,99.90
2023-04-20T23:05:05.761Z,99.90
2023-04-20T23:07:33.123Z,99.90
2023-04-20T23:10:00.374Z,99.90
2023-04-20T23:12:29.613Z,99.90
2023-04-20T23:14:56.771Z,99.90
2023-04-20T23:17:23.535Z,99.90
2023-04-20T23:19:50.873Z,99.90
2023-04-20T23:22:17.624Z,99.90
2023-04-20T23:24:44.347Z,99.90
2023-04-20T23:27:10.951Z,99.90
2023-04-20T23:29:37.617Z,99.90
2023-04-20T23:32:04.577Z,99.90
2023-04-20T23:34:31.303Z,99.90
2023-04-20T23:36:58.046Z,99.90
2023-04-20T23:39:24.802Z,99.90
2023-04-20T23:41:51.545Z,99.90
2023-04-20T23:44:18.268Z,99.90
2023-04-20T23:46:44.872Z,99.90
2023-04-20T23:49:11.546Z,99.90
2023-04-20T23:51:38.122Z,99.90
2023-04-20T23:54:04.859Z,99.90
2023-04-20T23:56:31.469Z,99.90
2023-04-20T23:58:59.234Z,99.90
